createdAt,value
2022-11-22T00:01:15.793Z,36.03
2022-11-22T00:03:43.786Z,32.53
2022-11-22T00:06:11.793Z,36.27
2022-11-22T00:08:39.823Z,32.55
2022-11-22T00:11:07.801Z,35.40
2022-11-22T00:13:37.370Z,39.37
2022-11-22T00:16:06.136Z,29.47
2022-11-22T00:18:34.466Z,33.50
2022-11-22T00:21:07.138Z,34.63
2022-11-22T00:23:35.692Z,31.13
2022-11-22T00:26:03.782Z,36.13
2022-11-22T00:28:31.813Z,34.93
2022-11-22T00:31:01.224Z,30.85
2022-11-22T00:33:29.284Z,26.67
2022-11-22T00:35:57.381Z,34.90
2022-11-22T00:38:25.444Z,35.70
2022-11-22T00:40:53.677Z,30.07
2022-11-22T00:43:21.695Z,36.60
2022-11-22T00:45:49.726Z,27.73
2022-11-22T00:48:19.112Z,32.00
2022-11-22T00:50:49.449Z,36.30
2022-11-22T00:53:17.448Z,35.33
2022-11-22T00:55:46.788Z,31.20
2022-11-22T00:58:14.850Z,39.63
2022-11-22T01:00:43.204Z,33.87
2022-11-22T01:03:12.638Z,34.97
2022-11-22T01:05:42.083Z,31.57
2022-11-22T01:08:10.683Z,31.20
2022-11-22T01:10:39.302Z,33.03
2022-11-22T01:13:07.587Z,31.85
2022-11-22T01:15:35.637Z,35.50
2022-11-22T01:18:03.680Z,39.97
2022-11-22T01:20:31.972Z,40.53
2022-11-22T01:23:01.365Z,41.58
2022-11-22T01:25:29.342Z,40.85
2022-11-22T01:27:57.352Z,37.80
2022-11-22T01:30:25.586Z,38.38
2022-11-22T01:32:53.643Z,43.57
2022-11-22T01:35:21.731Z,45.70
2022-11-22T01:37:49.803Z,45.80
2022-11-22T01:40:19.590Z,42.33
2022-11-22T01:42:52.050Z,39.10
2022-11-22T01:45:43.566Z,55.63
2022-11-22T01:48:39.371Z,53.63
2022-11-22T01:51:19.784Z,49.17
2022-11-22T01:53:48.138Z,46.17
2022-11-22T01:56:20.726Z,52.13
2022-11-22T01:58:52.142Z,53.10
2022-11-22T02:01:20.652Z,48.33
2022-11-22T02:03:52.961Z,43.67
2022-11-22T02:06:21.753Z,47.77
2022-11-22T02:08:58.423Z,48.90
2022-11-22T02:11:33.994Z,56.80
2022-11-22T02:14:03.239Z,49.83
2022-11-22T02:16:31.639Z,51.13
2022-11-22T02:18:59.630Z,44.00
2022-11-22T02:21:28.573Z,48.57
2022-11-22T02:24:02.295Z,45.93
2022-11-22T02:26:33.473Z,48.43
2022-11-22T02:29:05.187Z,41.50
2022-11-22T02:31:39.255Z,39.30
2022-11-22T02:34:07.388Z,44.60
2022-11-22T02:36:40.580Z,38.83
2022-11-22T02:39:10.497Z,35.50
2022-11-22T02:41:40.561Z,35.90
2022-11-22T02:44:10.532Z,36.90
2022-11-22T02:46:47.861Z,38.77
2022-11-22T02:49:18.434Z,30.87
2022-11-22T02:51:46.985Z,39.47
2022-11-22T02:54:15.085Z,37.67
2022-11-22T02:56:44.499Z,37.27
2022-11-22T02:59:12.549Z,34.28
2022-11-22T03:01:40.886Z,31.60
2022-11-22T03:04:08.959Z,40.27
2022-11-22T03:06:37.096Z,29.03
2022-11-22T03:09:05.236Z,42.33
2022-11-22T03:11:33.235Z,32.93
2022-11-22T03:14:02.633Z,33.17
2022-11-22T03:16:31.798Z,33.73
2022-11-22T03:19:00.148Z,28.73
2022-11-22T03:21:28.193Z,27.30
2022-11-22T03:23:56.367Z,34.23
2022-11-22T03:26:24.670Z,28.58
2022-11-22T03:28:52.700Z,35.43
2022-11-22T03:31:22.247Z,27.00
2022-11-22T03:33:50.265Z,32.80
2022-11-22T03:36:18.432Z,30.87
2022-11-22T03:38:46.527Z,30.70
2022-11-22T03:41:14.541Z,28.15
2022-11-22T03:43:43.013Z,30.33
2022-11-22T03:46:15.874Z,35.30
2022-11-22T03:48:45.214Z,33.90
2022-11-22T03:51:13.490Z,31.10
2022-11-22T03:53:41.542Z,28.73
2022-11-22T03:56:09.596Z,26.80
2022-11-22T03:58:37.634Z,34.03
2022-11-22T04:01:05.703Z,25.13
2022-11-22T04:03:33.785Z,29.73
2022-11-22T04:06:03.277Z,28.27
2022-11-22T04:08:31.379Z,25.13
2022-11-22T04:10:59.443Z,33.27
2022-11-22T04:13:47.721Z,26.27
2022-11-22T04:16:14.844Z,28.20
2022-11-22T04:18:43.287Z,24.83
2022-11-22T04:21:30.289Z,25.30
2022-11-22T04:24:16.323Z,25.27
2022-11-22T04:26:44.331Z,30.45
2022-11-22T04:29:12.391Z,25.80
2022-11-22T04:31:57.736Z,28.97
2022-11-22T04:34:26.124Z,28.13
2022-11-22T04:36:55.556Z,30.15
2022-11-22T04:39:23.589Z,24.90
2022-11-22T04:42:14.200Z,26.97
2022-11-22T04:44:41.613Z,26.17
2022-11-22T04:47:10.013Z,24.75
2022-11-22T04:49:38.465Z,25.55
2022-11-22T04:52:25.612Z,24.83
2022-11-22T04:54:53.594Z,22.52
2022-11-22T04:57:21.980Z,23.90
2022-11-22T04:59:50.002Z,23.17
2022-11-22T05:02:18.017Z,25.57
2022-11-22T05:04:50.472Z,24.97
2022-11-22T05:07:20.659Z,25.75
2022-11-22T05:09:48.745Z,25.00
2022-11-22T05:12:16.791Z,15.43
2022-11-22T05:14:45.039Z,28.90
2022-11-22T05:17:13.552Z,26.40
2022-11-22T05:19:46.411Z,27.33
2022-11-22T05:22:17.536Z,28.00
2022-11-22T05:24:45.880Z,26.60
2022-11-22T05:27:14.167Z,20.38
2022-11-22T05:29:42.483Z,17.93
2022-11-22T05:32:10.464Z,26.00
2022-11-22T05:34:38.488Z,25.40
2022-11-22T05:37:06.770Z,18.73
2022-11-22T05:39:34.739Z,26.10
2022-11-22T05:42:05.983Z,24.75
2022-11-22T05:44:38.772Z,20.60
2022-11-22T05:47:11.336Z,27.88
2022-11-22T05:49:39.511Z,19.40
2022-11-22T05:52:08.792Z,21.42
2022-11-22T05:54:37.176Z,25.13
2022-11-22T05:57:06.608Z,26.50
2022-11-22T05:59:36.049Z,24.13
2022-11-22T06:02:06.025Z,24.65
2022-11-22T06:04:34.592Z,22.55
2022-11-22T06:07:08.398Z,18.30
2022-11-22T06:09:38.311Z,22.45
2022-11-22T06:12:08.385Z,24.17
2022-11-22T06:14:42.738Z,26.57
2022-11-22T06:17:11.644Z,30.95
2022-11-22T06:19:39.664Z,29.55
2022-11-22T06:22:07.653Z,22.42
2022-11-22T06:24:35.844Z,26.98
2022-11-22T06:27:03.993Z,24.93
2022-11-22T06:29:33.733Z,28.35
2022-11-22T06:32:03.738Z,23.42
2022-11-22T06:34:32.356Z,25.85
2022-11-22T06:37:00.554Z,22.90
2022-11-22T06:39:28.793Z,24.48
2022-11-22T06:41:57.347Z,24.40
2022-11-22T06:44:25.326Z,22.55
2022-11-22T06:46:54.669Z,23.90
2022-11-22T06:49:22.718Z,24.10
2022-11-22T06:51:50.903Z,26.55
2022-11-22T06:54:18.966Z,26.43
2022-11-22T06:56:47.224Z,25.20
2022-11-22T06:59:15.211Z,26.70
2022-11-22T07:01:43.329Z,28.83
2022-11-22T07:04:12.795Z,26.73
2022-11-22T07:06:40.968Z,26.05
2022-11-22T07:09:11.110Z,27.92
2022-11-22T07:11:40.717Z,25.38
2022-11-22T07:14:09.599Z,23.88
2022-11-22T07:16:38.893Z,24.43
2022-11-22T07:19:07.818Z,24.60
2022-11-22T07:21:38.307Z,21.52
2022-11-22T07:24:07.881Z,26.87
2022-11-22T07:26:35.909Z,25.73
2022-11-22T07:29:04.450Z,25.13
2022-11-22T07:31:32.778Z,17.73
2022-11-22T07:34:01.056Z,29.50
2022-11-22T07:36:30.407Z,19.42
2022-11-22T07:38:59.943Z,24.10
2022-11-22T07:41:27.923Z,21.83
2022-11-22T07:43:55.961Z,26.30
2022-11-22T07:46:26.600Z,26.80
2022-11-22T07:48:54.722Z,23.98
2022-11-22T07:51:22.713Z,21.73
2022-11-22T07:53:50.803Z,26.27
2022-11-22T07:56:20.920Z,26.27
2022-11-22T07:58:48.935Z,22.15
2022-11-22T08:01:19.171Z,24.88
2022-11-22T08:03:47.740Z,26.75
2022-11-22T08:06:16.616Z,23.52
2022-11-22T08:08:44.825Z,24.25
2022-11-22T08:11:13.659Z,22.10
2022-11-22T08:13:44.620Z,30.02
2022-11-22T08:16:14.682Z,23.15
2022-11-22T08:18:48.214Z,24.75
2022-11-22T08:21:17.793Z,26.47
2022-11-22T08:23:46.957Z,26.23
2022-11-22T08:26:17.181Z,22.60
2022-11-22T08:28:47.037Z,23.27
2022-11-22T08:31:19.041Z,24.63
2022-11-22T08:33:47.291Z,22.42
2022-11-22T08:36:15.857Z,27.27
2022-11-22T08:38:43.988Z,22.27
2022-11-22T08:41:12.828Z,22.17
2022-11-22T08:43:40.844Z,25.98
2022-11-22T08:46:10.703Z,28.42
2022-11-22T08:48:39.949Z,27.20
2022-11-22T08:51:10.399Z,23.53
2022-11-22T08:53:40.328Z,25.60
2022-11-22T08:56:10.684Z,25.13
2022-11-22T08:58:39.538Z,26.67
2022-11-22T09:01:09.765Z,33.78
2022-11-22T09:03:38.550Z,26.20
2022-11-22T09:09:15.241Z,27.67
2022-11-22T09:11:44.835Z,27.85
2022-11-22T09:14:13.241Z,26.70
2022-11-22T09:16:42.641Z,29.50
2022-11-22T09:19:10.998Z,23.05
2022-11-22T09:21:39.046Z,29.90
2022-11-22T09:24:07.535Z,26.30
2022-11-22T09:26:35.586Z,30.73
2022-11-22T09:29:03.633Z,27.63
2022-11-22T09:31:33.178Z,31.55
2022-11-22T09:34:02.638Z,24.20
2022-11-22T09:36:31.022Z,28.70
2022-11-22T09:38:59.611Z,29.13
2022-11-22T09:41:52.050Z,22.38
2022-11-22T09:44:29.524Z,29.38
2022-11-22T09:47:03.989Z,45.17
2022-11-22T09:49:47.100Z,30.30
2022-11-22T09:52:19.335Z,25.60
2022-11-22T09:54:52.098Z,27.40
2022-11-22T09:57:24.666Z,25.63
2022-11-22T10:00:02.142Z,30.25
2022-11-22T10:02:58.759Z,27.10
2022-11-22T10:05:31.345Z,29.33
2022-11-22T10:08:04.234Z,25.80
2022-11-22T10:10:40.109Z,24.80
2022-11-22T10:13:14.211Z,28.02
2022-11-22T10:15:50.240Z,25.67
2022-11-22T10:18:25.181Z,30.33
2022-11-22T10:20:54.919Z,33.25
2022-11-22T10:23:24.445Z,28.20
2022-11-22T10:25:58.800Z,26.33
2022-11-22T10:28:34.758Z,32.95
2022-11-22T10:31:09.187Z,29.85
2022-11-22T10:33:44.801Z,22.48
2022-11-22T10:36:36.200Z,28.52
2022-11-22T10:39:24.575Z,30.40
2022-11-22T10:42:22.518Z,28.30
2022-11-22T10:44:58.975Z,27.65
2022-11-22T10:47:41.910Z,23.80
2022-11-22T10:50:17.492Z,28.83
2022-11-22T10:52:57.641Z,30.80
2022-11-22T10:55:50.156Z,28.77
2022-11-22T10:58:26.729Z,23.13
2022-11-22T11:01:04.568Z,26.38
2022-11-22T11:03:35.281Z,24.25
2022-11-22T11:06:26.264Z,26.50
2022-11-22T11:09:54.960Z,21.77
2022-11-22T11:11:53.490Z,27.50
2022-11-22T11:14:28.986Z,26.58
2022-11-22T11:16:57.617Z,29.92
2022-11-22T11:19:28.265Z,24.48
2022-11-22T11:22:01.950Z,24.25
2022-11-22T11:24:33.161Z,31.58
2022-11-22T11:27:01.838Z,24.10
2022-11-22T11:29:38.977Z,23.88
2022-11-22T11:32:10.824Z,28.48
2022-11-22T11:34:41.255Z,26.80
2022-11-22T11:37:20.417Z,25.40
2022-11-22T11:39:49.976Z,26.67
2022-11-22T11:42:31.788Z,23.60
2022-11-22T11:45:29.320Z,23.58
2022-11-22T11:47:57.351Z,25.23
2022-11-22T11:50:28.001Z,24.88
2022-11-22T11:52:58.032Z,18.25
2022-11-22T11:55:32.303Z,25.10
2022-11-22T11:58:00.646Z,22.20
2022-11-22T12:00:36.695Z,22.10
2022-11-22T12:03:09.120Z,19.83
2022-11-22T12:05:37.171Z,19.08
2022-11-22T12:08:27.553Z,19.98
2022-11-22T12:11:04.402Z,18.52
2022-11-22T12:13:57.850Z,21.45
2022-11-22T12:16:31.085Z,18.42
2022-11-22T12:19:05.153Z,21.17
2022-11-22T12:21:43.351Z,20.98
2022-11-22T12:27:06.456Z,19.23
2022-11-22T12:29:38.335Z,17.77
2022-11-22T12:32:12.825Z,21.00
2022-11-22T12:34:49.189Z,20.83
2022-11-22T12:37:20.911Z,17.88
2022-11-22T12:39:50.509Z,21.17
2022-11-22T12:42:24.602Z,18.80
2022-11-22T12:44:58.324Z,23.27
2022-11-22T12:47:32.406Z,22.42
2022-11-22T12:50:07.192Z,19.38
2022-11-22T12:52:42.928Z,21.88
2022-11-22T12:55:17.822Z,20.80
2022-11-22T12:57:54.109Z,21.80
2022-11-22T13:00:24.924Z,19.05
2022-11-22T13:03:02.437Z,21.73
2022-11-22T13:05:33.154Z,20.75
2022-11-22T13:08:09.694Z,21.85
2022-11-22T13:10:43.316Z,21.02
2022-11-22T13:13:21.299Z,20.98
2022-11-22T13:15:52.985Z,21.52
2022-11-22T13:18:22.027Z,22.58
2022-11-22T13:20:55.908Z,22.45
2022-11-22T13:23:38.353Z,20.75
2022-11-22T13:26:14.884Z,24.38
2022-11-22T13:28:45.441Z,20.67
2022-11-22T13:31:19.658Z,21.70
2022-11-22T13:33:56.948Z,23.85
2022-11-22T13:36:41.230Z,21.20
2022-11-22T13:39:17.209Z,21.42
2022-11-22T13:41:53.471Z,21.25
2022-11-22T13:44:49.931Z,21.02
2022-11-22T13:47:37.994Z,20.05
2022-11-22T13:50:39.259Z,19.75
2022-11-22T13:53:25.951Z,21.27
2022-11-22T13:55:54.296Z,18.33
2022-11-22T13:59:04.972Z,18.77
2022-11-22T14:02:00.331Z,22.60
2022-11-22T14:04:45.013Z,20.10
2022-11-22T14:07:38.757Z,27.23
2022-11-22T14:10:30.020Z,17.85
2022-11-22T14:13:31.254Z,22.35
2022-11-22T14:16:19.004Z,20.67
2022-11-22T14:18:59.381Z,23.00
2022-11-22T14:21:46.997Z,18.52
2022-11-22T14:24:27.992Z,21.20
2022-11-22T14:27:01.868Z,22.33
2022-11-22T14:30:04.223Z,19.08
2022-11-22T14:32:44.002Z,21.00
2022-11-22T14:35:29.007Z,18.45
2022-11-22T14:38:20.148Z,20.63
2022-11-22T14:40:48.168Z,22.83
2022-11-22T14:43:33.999Z,16.95
2022-11-22T14:46:30.482Z,18.80
2022-11-22T14:49:03.405Z,18.95
2022-11-22T14:51:34.057Z,17.88
2022-11-22T14:54:05.533Z,16.08
2022-11-22T14:56:35.682Z,21.90
2022-11-22T14:59:16.904Z,15.25
2022-11-22T15:02:31.434Z,17.67
2022-11-22T15:09:09.898Z,18.00
2022-11-22T15:09:21.285Z,19.65
2022-11-22T15:11:35.639Z,20.98
2022-11-22T15:14:45.565Z,15.57
2022-11-22T15:57:34.753Z,25.60
2022-11-22T16:00:03.817Z,23.52
2022-11-22T16:02:33.189Z,22.70
2022-11-22T16:06:08.767Z,16.40
2022-11-22T16:07:52.578Z,22.48
2022-11-22T16:10:23.017Z,18.20
2022-11-22T16:12:53.794Z,26.63
2022-11-22T16:15:29.053Z,25.52
2022-11-22T16:18:07.965Z,22.02
2022-11-22T16:20:37.320Z,22.33
2022-11-22T16:23:17.538Z,18.17
2022-11-22T16:25:48.793Z,17.75
2022-11-22T16:28:36.684Z,16.10
2022-11-22T16:31:08.527Z,18.33
2022-11-22T16:33:37.069Z,20.13
2022-11-22T16:36:10.655Z,18.60
2022-11-22T16:38:38.932Z,21.48
2022-11-22T16:41:13.516Z,16.65
2022-11-22T16:43:43.347Z,18.98
2022-11-22T16:46:15.228Z,18.77
2022-11-22T16:48:44.553Z,19.38
2022-11-22T16:51:15.425Z,19.92
2022-11-22T16:53:45.733Z,20.45
2022-11-22T16:56:19.629Z,17.48
2022-11-22T16:58:50.047Z,18.77
2022-11-22T17:01:20.294Z,20.00
2022-11-22T17:03:50.795Z,20.60
2022-11-22T17:06:20.371Z,20.50
2022-11-22T17:08:50.146Z,20.20
2022-11-22T17:11:20.521Z,21.75
2022-11-22T17:13:50.065Z,23.80
2022-11-22T17:16:19.164Z,22.50
2022-11-22T17:18:48.169Z,22.55
2022-11-22T17:21:22.094Z,19.67
2022-11-22T17:23:50.649Z,21.48
2022-11-22T17:26:18.723Z,21.95
2022-11-22T17:28:46.776Z,21.35
2022-11-22T17:31:17.992Z,17.85
2022-11-22T17:33:46.033Z,23.90
2022-11-22T17:36:22.768Z,22.60
2022-11-22T17:38:50.828Z,18.40
2022-11-22T17:41:18.941Z,22.67
2022-11-22T17:43:48.283Z,23.15
2022-11-22T17:46:17.989Z,18.55
2022-11-22T17:49:03.969Z,21.48
2022-11-22T17:51:32.800Z,20.25
2022-11-22T17:54:02.448Z,19.08
2022-11-22T17:56:32.627Z,19.02
2022-11-22T17:59:03.745Z,22.02
2022-11-22T18:01:34.231Z,20.13
2022-11-22T18:04:02.242Z,23.23
2022-11-22T18:06:31.410Z,19.33
2022-11-22T18:09:00.402Z,21.20
2022-11-22T18:11:28.475Z,19.43
2022-11-22T18:13:56.696Z,23.87
2022-11-22T18:16:32.479Z,21.85
2022-11-22T18:19:02.388Z,17.77
2022-11-22T18:21:32.039Z,18.50
2022-11-22T18:24:00.788Z,21.23
2022-11-22T18:26:39.378Z,18.17
2022-11-22T18:31:57.212Z,20.57
2022-11-22T18:34:27.898Z,16.83
2022-11-22T18:37:00.893Z,18.73
2022-11-22T18:39:31.334Z,23.07
2022-11-22T18:41:59.821Z,19.73
2022-11-22T18:44:28.097Z,21.73
2022-11-22T18:46:56.309Z,20.77
2022-11-22T18:49:25.859Z,18.10
2022-11-22T18:51:53.991Z,18.33
2022-11-22T18:54:22.869Z,18.60
2022-11-22T18:56:51.566Z,19.05
2022-11-22T18:59:19.831Z,20.25
2022-11-22T19:01:48.048Z,19.63
2022-11-22T19:04:17.176Z,20.05
2022-11-22T19:06:46.919Z,17.20
2022-11-22T19:09:15.184Z,15.80
2022-11-22T19:11:43.361Z,21.87
2022-11-22T19:14:11.390Z,22.83
2022-11-22T19:16:39.481Z,18.43
2022-11-22T19:19:08.421Z,18.03
2022-11-22T19:21:36.941Z,22.10
2022-11-22T19:24:07.218Z,18.63
2022-11-22T19:26:35.414Z,17.73
2022-11-22T19:29:04.943Z,21.23
2022-11-22T19:31:33.778Z,27.20
2022-11-22T19:34:01.830Z,18.63
2022-11-22T19:36:33.634Z,19.27
2022-11-22T19:39:03.639Z,22.00
2022-11-22T19:41:33.392Z,23.40
2022-11-22T19:44:01.549Z,22.03
2022-11-22T19:46:30.546Z,17.75
2022-11-22T19:48:59.861Z,17.90
2022-11-22T19:51:29.438Z,23.20
2022-11-22T19:53:59.488Z,21.30
2022-11-22T19:56:30.261Z,21.08
2022-11-22T19:59:01.557Z,20.53
2022-11-22T20:01:31.232Z,15.93
2022-11-22T20:04:00.970Z,20.30
2022-11-22T20:06:29.697Z,21.27
2022-11-22T20:09:02.336Z,18.93
2022-11-22T20:11:30.599Z,19.87
2022-11-22T20:14:00.069Z,22.75
2022-11-22T20:16:29.700Z,22.23
2022-11-22T20:18:59.486Z,20.58
2022-11-22T20:21:29.423Z,18.42
2022-11-22T20:23:57.868Z,16.33
2022-11-22T20:26:26.940Z,19.27
2022-11-22T20:29:00.243Z,20.37
2022-11-22T20:31:30.613Z,16.67
2022-11-22T20:34:00.747Z,23.57
2022-11-22T20:36:30.455Z,21.10
2022-11-22T20:38:58.851Z,28.33
2022-11-22T20:41:30.230Z,20.07
2022-11-22T20:43:59.757Z,21.73
2022-11-22T20:46:29.342Z,19.92
2022-11-22T20:48:58.981Z,18.38
2022-11-22T20:51:29.119Z,18.40
2022-11-22T20:53:57.833Z,18.57
2022-11-22T20:56:26.251Z,18.10
2022-11-22T20:58:54.572Z,19.27
2022-11-22T21:01:25.932Z,16.23
2022-11-22T21:03:54.717Z,22.83
2022-11-22T21:06:24.538Z,19.83
2022-11-22T21:08:52.866Z,21.67
2022-11-22T21:11:24.192Z,20.47
2022-11-22T21:13:53.138Z,19.70
2022-11-22T21:16:24.863Z,20.47
2022-11-22T21:18:54.080Z,19.60
2022-11-22T21:21:23.958Z,15.73
2022-11-22T21:23:53.501Z,17.47
2022-11-22T21:26:21.957Z,20.03
2022-11-22T21:28:50.397Z,20.20
2022-11-22T21:31:19.451Z,20.00
2022-11-22T21:33:49.329Z,18.53
2022-11-22T21:36:17.778Z,20.17
2022-11-22T21:38:45.947Z,22.38
2022-11-22T21:44:04.852Z,22.77
2022-11-22T21:46:33.156Z,23.30
2022-11-22T21:49:02.763Z,20.33
2022-11-22T21:51:31.933Z,21.33
2022-11-22T21:54:00.606Z,18.83
2022-11-22T21:56:29.544Z,16.25
2022-11-22T21:58:57.870Z,16.20
2022-11-22T22:01:25.983Z,15.25
2022-11-22T22:03:54.583Z,20.42
2022-11-22T22:06:25.135Z,14.35
2022-11-22T22:08:53.216Z,11.70
2022-11-22T22:11:21.368Z,14.35
2022-11-22T22:13:49.422Z,14.55
2022-11-22T22:16:19.268Z,13.75
2022-11-22T22:18:48.154Z,18.90
2022-11-22T22:21:17.743Z,16.63
2022-11-22T22:23:47.749Z,12.43
2022-11-22T22:26:17.249Z,17.63
2022-11-22T22:28:46.206Z,17.38
2022-11-22T22:31:17.062Z,15.93
2022-11-22T22:33:46.618Z,17.07
2022-11-22T22:36:15.251Z,13.00
2022-11-22T22:38:43.385Z,14.13
2022-11-22T22:41:14.463Z,14.27
2022-11-22T22:43:44.390Z,17.92
2022-11-22T22:46:14.771Z,12.83
2022-11-22T22:48:43.542Z,14.13
2022-11-22T22:51:14.658Z,13.90
2022-11-22T22:53:43.535Z,9.73
2022-11-22T22:56:14.903Z,16.30
2022-11-22T22:58:43.419Z,16.13
2022-11-22T23:01:14.633Z,13.50
2022-11-22T23:03:42.861Z,14.20
2022-11-22T23:06:12.668Z,13.63
2022-11-22T23:08:41.526Z,13.35
2022-11-22T23:11:10.889Z,17.57
2022-11-22T23:13:42.510Z,12.97
2022-11-22T23:16:12.557Z,14.30
2022-11-22T23:18:43.053Z,15.43
2022-11-22T23:21:13.197Z,15.23
2022-11-22T23:23:41.446Z,11.67
2022-11-22T23:26:10.857Z,12.77
2022-11-22T23:28:40.647Z,14.93
2022-11-22T23:31:10.612Z,18.73
2022-11-22T23:33:38.969Z,20.37
2022-11-22T23:36:09.294Z,12.13
2022-11-22T23:38:37.828Z,15.80
2022-11-22T23:41:06.341Z,15.70
2022-11-22T23:43:34.887Z,16.95
2022-11-22T23:46:04.331Z,11.73
2022-11-22T23:48:32.427Z,14.32
2022-11-22T23:51:05.149Z,15.00
2022-11-22T23:53:33.134Z,13.90
2022-11-22T23:56:06.589Z,10.07
2022-11-22T23:58:34.993Z,13.67
